Time;durP1;ratioP1;P1;durP2;ratioP2;P2;SDS_P1;SDS_P2;PMS_P1;PMS_P2;Temp;Humidity;BMP_temperature;BMP_pressure;BME280_temperature;BME280_humidity;BME280_pressure;Samples;Min_cycle;Max_cycle;Signal;HPM_P1;HPM_P2
2022/08/04 00:00:06;;;;;;;20.30;3.00;;;20.50;99.90;;;;;;4956606;29;20055;-73
2022/08/04 00:02:46;;;;;;;11.55;3.67;;;20.40;99.90;;;;;;4956613;29;20043;-73
2022/08/04 00:05:28;;;;;;;12.27;3.55;;;20.40;99.90;;;;;;4955682;29;20056;-71
2022/08/04 00:08:09;;;;;;;12.10;3.92;;;20.40;99.90;;;;;;4955982;29;20380;-72
2022/08/04 00:10:39;;;;;;;13.32;3.92;;;20.40;99.90;;;;;;4940162;29;20055;-73
2022/08/04 00:13:07;;;;;;;15.18;4.40;;;20.30;99.90;;;;;;4939352;29;20491;-73
2022/08/04 00:15:33;;;;;;;13.65;4.18;;;20.30;99.90;;;;;;4955734;29;20183;-73
2022/08/04 00:18:06;;;;;;;16.27;4.25;;;20.30;99.90;;;;;;4956449;29;20039;-73
2022/08/04 00:20:36;;;;;;;13.35;3.90;;;20.30;99.90;;;;;;4956849;28;20043;-72
2022/08/04 00:23:03;;;;;;;12.95;4.55;;;20.30;99.90;;;;;;4955579;29;20073;-78
2022/08/04 00:25:29;;;;;;;12.02;4.18;;;20.20;99.90;;;;;;4955920;29;20047;-73
2022/08/04 00:27:55;;;;;;;11.60;4.07;;;20.20;99.90;;;;;;4956299;29;20058;-72
2022/08/04 00:30:21;;;;;;;12.33;4.67;;;20.20;99.90;;;;;;4939172;29;20051;-71
2022/08/04 00:32:47;;;;;;;15.20;4.75;;;20.20;99.90;;;;;;4938537;29;20047;-75
2022/08/04 00:35:14;;;;;;;15.38;4.90;;;20.30;99.90;;;;;;4923347;29;20126;-72
2022/08/04 00:37:42;;;;;;;13.48;5.25;;;20.30;99.90;;;;;;4939533;29;20058;-72
2022/08/04 00:40:35;;;;;;;11.52;4.90;;;20.20;99.90;;;;;;4939507;29;20412;-72
2022/08/04 00:43:12;;;;;;;16.08;5.53;;;20.20;99.90;;;;;;4950611;28;20066;-74
2022/08/04 00:46:04;;;;;;;14.07;5.35;;;20.20;99.90;;;;;;4953616;28;20491;-73
2022/08/04 00:49:01;;;;;;;14.85;5.88;;;20.20;99.90;;;;;;4954880;29;20562;-73
2022/08/04 00:52:11;;;;;;;20.95;5.78;;;20.20;99.90;;;;;;4956033;29;20127;-73
2022/08/04 00:54:55;;;;;;;13.55;5.40;;;20.10;99.90;;;;;;4920239;28;20056;-71
2022/08/04 00:57:27;;;;;;;18.55;6.03;;;20.00;99.90;;;;;;4955760;29;20090;-77
2022/08/04 01:00:01;;;;;;;18.90;6.28;;;20.00;99.90;;;;;;4955652;28;20051;-72
2022/08/04 01:03:08;;;;;;;15.52;5.80;;;20.00;99.90;;;;;;4956092;28;20051;-73
2022/08/04 01:05:53;;;;;;;13.27;5.82;;;20.00;99.90;;;;;;4955917;28;20113;-72
2022/08/04 01:08:34;;;;;;;16.13;5.68;;;20.00;99.90;;;;;;4955667;28;20039;-73
2022/08/04 01:11:27;;;;;;;19.65;6.32;;;20.00;99.90;;;;;;4954394;29;20058;-72
2022/08/04 01:14:21;;;;;;;22.80;6.28;;;19.90;99.90;;;;;;4955775;28;20102;-72
2022/08/04 01:17:04;;;;;;;17.80;6.38;;;19.90;99.90;;;;;;4954666;29;20118;-72
2022/08/04 01:20:07;;;;;;;22.58;6.00;;;19.90;99.90;;;;;;4939021;29;20059;-72
2022/08/04 01:22:33;;;;;;;18.00;6.47;;;19.90;99.90;;;;;;4954935;29;20047;-72
2022/08/04 01:25:19;;;;;;;15.93;6.93;;;19.80;99.90;;;;;;4954905;29;20043;-72
2022/08/04 01:28:04;;;;;;;16.48;6.35;;;19.80;99.90;;;;;;4956683;29;20059;-73
2022/08/04 01:30:32;;;;;;;16.73;6.53;;;19.80;99.90;;;;;;4955835;29;20134;-71
2022/08/04 01:33:01;;;;;;;13.98;6.40;;;19.80;99.90;;;;;;4954634;29;20051;-77
2022/08/04 01:35:43;;;;;;;16.92;6.00;;;19.70;99.90;;;;;;4938586;29;20083;-72
2022/08/04 01:38:25;;;;;;;14.93;6.47;;;19.70;99.90;;;;;;4956430;28;20039;-73
2022/08/04 01:40:54;;;;;;;13.40;5.90;;;19.60;99.90;;;;;;4940060;29;20054;-72
2022/08/04 01:43:21;;;;;;;14.43;6.30;;;19.60;99.90;;;;;;4940594;29;20050;-71
2022/08/04 01:45:56;;;;;;;12.02;6.10;;;19.60;99.90;;;;;;4956322;29;20479;-71
2022/08/04 01:48:24;;;;;;;13.50;6.13;;;19.50;99.90;;;;;;4956155;29;20055;-72
2022/08/04 01:50:52;;;;;;;12.85;6.63;;;19.50;99.90;;;;;;4956948;29;20186;-73
2022/08/04 01:53:20;;;;;;;14.88;6.60;;;19.50;99.90;;;;;;4957683;28;20067;-72
2022/08/04 01:55:51;;;;;;;17.95;6.00;;;19.50;99.90;;;;;;4954382;28;20054;-72
2022/08/04 01:58:18;;;;;;;19.17;6.07;;;19.50;99.90;;;;;;4955639;28;20039;-72
2022/08/04 02:00:58;;;;;;;16.80;6.38;;;19.50;99.90;;;;;;4955885;29;20062;-72
2022/08/04 02:03:25;;;;;;;17.08;6.25;;;19.50;99.90;;;;;;4957382;28;20174;-72
2022/08/04 02:05:58;;;;;;;16.08;5.85;;;19.50;99.90;;;;;;4960107;28;20079;-75
2022/08/04 02:08:40;;;;;;;15.32;6.85;;;19.40;99.90;;;;;;4958291;29;20131;-72
2022/08/04 02:11:16;;;;;;;13.52;6.35;;;19.40;99.90;;;;;;4959048;28;20047;-74
2022/08/04 02:13:53;;;;;;;18.35;6.70;;;19.40;99.90;;;;;;4958970;28;20062;-72
2022/08/04 02:16:38;;;;;;;16.15;6.38;;;19.40;99.90;;;;;;4959672;29;20055;-72
2022/08/04 02:19:24;;;;;;;15.05;6.85;;;19.40;99.90;;;;;;4960047;29;20051;-75
2022/08/04 02:21:54;;;;;;;;;;;19.40;99.90;;;;;;4949840;29;20110;-76
2022/08/04 02:24:25;;;;;;;16.17;6.35;;;19.40;99.90;;;;;;4958500;29;19927;-78
2022/08/04 02:27:00;;;;;;;18.08;6.22;;;19.40;99.90;;;;;;4941671;29;20099;-74
2022/08/04 02:30:03;;;;;;;23.15;6.80;;;19.40;99.90;;;;;;4953997;29;20479;-73
2022/08/04 02:32:40;;;;;;;14.55;6.10;;;19.40;99.90;;;;;;4898573;29;20067;-74
2022/08/04 02:35:11;;;;;;;18.00;6.57;;;19.40;99.90;;;;;;4947259;29;20197;-73
2022/08/04 02:37:38;;;;;;;14.23;6.40;;;19.40;99.90;;;;;;4954269;29;20055;-73
2022/08/04 02:40:16;;;;;;;14.88;6.30;;;19.40;99.90;;;;;;4938916;29;20388;-73
2022/08/04 02:42:43;;;;;;;15.38;6.22;;;19.30;99.90;;;;;;4939320;29;20388;-73
2022/08/04 02:45:10;;;;;;;19.63;6.53;;;19.30;99.90;;;;;;4922741;29;20051;-72
2022/08/04 02:47:37;;;;;;;19.73;6.65;;;19.30;99.90;;;;;;4923185;29;20494;-74
2022/08/04 02:50:04;;;;;;;14.00;6.22;;;19.30;99.90;;;;;;4954117;28;20122;-75
2022/08/04 02:52:31;;;;;;;14.50;6.07;;;19.30;99.90;;;;;;4922343;29;20077;-72
2022/08/04 02:55:00;;;;;;;17.55;6.40;;;19.20;99.90;;;;;;4938422;29;20055;-73
2022/08/04 02:57:30;;;;;;;12.73;6.00;;;19.30;99.90;;;;;;4954808;29;20051;-73
2022/08/04 03:00:18;;;;;;;14.52;6.18;;;19.30;99.90;;;;;;4954708;29;20055;-73
2022/08/04 03:02:58;;;;;;;17.13;7.03;;;19.30;99.90;;;;;;4955824;29;20217;-73
2022/08/04 03:05:44;;;;;;;20.50;6.57;;;19.30;99.90;;;;;;4955778;28;20051;-74
2022/08/04 03:08:51;;;;;;;19.73;6.40;;;19.30;99.90;;;;;;4935683;28;20059;-72
2022/08/04 03:11:38;;;;;;;12.73;6.13;;;19.20;99.90;;;;;;4957368;28;20399;-73
2022/08/04 03:14:23;;;;;;;14.98;5.70;;;19.20;99.90;;;;;;4957427;28;20066;-78
2022/08/04 03:17:10;;;;;;;16.35;6.53;;;19.20;99.90;;;;;;4957411;29;20543;-73
2022/08/04 03:19:58;;;;;;;18.30;6.28;;;19.20;99.90;;;;;;4957108;29;20078;-73
2022/08/04 03:22:43;;;;;;;14.25;6.05;;;19.20;99.90;;;;;;4940861;29;20495;-73
2022/08/04 03:25:40;;;;;;;12.90;6.10;;;19.10;99.90;;;;;;4957800;28;20455;-73
2022/08/04 03:28:25;;;;;;;14.68;6.20;;;19.10;99.90;;;;;;4957322;29;20098;-79
2022/08/04 03:31:36;;;;;;;16.92;6.30;;;19.10;99.90;;;;;;4958047;28;20173;-76
2022/08/04 03:34:32;;;;;;;13.82;5.57;;;19.10;99.90;;;;;;4924590;29;20528;-78
2022/08/04 03:37:25;;;;;;;13.85;5.85;;;19.00;99.90;;;;;;4957056;28;20130;-72
2022/08/04 03:40:31;;;;;;;13.95;5.63;;;19.00;99.90;;;;;;4940181;29;20492;-73
2022/08/04 03:43:12;;;;;;;12.20;5.60;;;19.00;99.90;;;;;;4941080;29;20059;-74
2022/08/04 03:45:58;;;;;;;14.95;5.70;;;18.90;99.90;;;;;;4940715;29;20077;-73
2022/08/04 03:49:24;;;;;;;14.52;5.72;;;18.90;99.90;;;;;;4956515;29;20043;-74
2022/08/04 03:55:22;;;;;;;13.85;5.90;;;18.80;99.90;;;;;;4916265;29;20092;-80
2022/08/04 03:58:16;;;;;;;15.35;6.57;;;18.70;99.90;;;;;;4922788;29;20139;-75
2022/08/04 04:01:20;;;;;;;16.38;6.30;;;18.60;99.90;;;;;;4937160;29;20071;-74
2022/08/04 04:04:00;;;;;;;12.65;6.25;;;18.60;99.90;;;;;;4937235;29;20099;-74
2022/08/04 04:07:11;;;;;;;18.88;6.18;;;18.60;99.90;;;;;;4920341;29;20059;-74
2022/08/04 04:10:19;;;;;;;17.90;7.22;;;18.60;99.90;;;;;;4933988;29;20117;-75
2022/08/04 04:13:09;;;;;;;15.05;8.18;;;18.70;99.90;;;;;;4929142;29;20056;-73
2022/08/04 04:16:05;;;;;;;15.52;7.10;;;18.70;99.90;;;;;;4936377;29;20051;-72
2022/08/04 04:18:49;;;;;;;14.32;7.05;;;18.60;99.90;;;;;;4921427;29;20036;-72
2022/08/04 04:21:54;;;;;;;13.85;6.70;;;18.70;99.90;;;;;;4921161;29;20059;-75
2022/08/04 04:24:32;;;;;;;17.63;6.20;;;18.70;99.90;;;;;;4936325;29;20051;-74
2022/08/04 04:27:27;;;;;;;15.48;5.97;;;18.70;99.90;;;;;;4920012;29;20043;-72
2022/08/04 04:29:56;;;;;;;19.20;6.95;;;18.80;99.90;;;;;;4921174;29;20138;-72
2022/08/04 04:32:51;;;;;;;17.05;6.55;;;18.80;99.90;;;;;;4935866;29;20067;-75
2022/08/04 04:35:45;;;;;;;14.25;6.55;;;18.80;99.90;;;;;;4920527;29;20052;-71
2022/08/04 04:38:32;;;;;;;14.13;5.75;;;18.80;99.90;;;;;;4919743;29;20040;-77
2022/08/04 04:41:31;;;;;;;16.45;5.85;;;18.80;99.90;;;;;;4920445;29;20058;-73
2022/08/04 04:44:26;;;;;;;11.10;5.40;;;18.90;99.90;;;;;;4917087;29;20063;-73
2022/08/04 04:47:17;;;;;;;19.05;6.25;;;18.90;99.90;;;;;;4920253;29;20048;-74
2022/08/04 04:49:56;;;;;;;18.20;6.57;;;19.00;99.90;;;;;;4937929;28;20154;-74
2022/08/04 04:52:39;;;;;;;20.05;6.10;;;19.00;99.90;;;;;;4926166;29;20059;-74
2022/08/04 04:55:23;;;;;;;15.10;7.03;;;19.00;99.90;;;;;;4958194;29;20376;-75
2022/08/04 04:57:57;;;;;;;13.82;6.70;;;18.90;99.90;;;;;;4955629;29;20050;-74
2022/08/04 05:01:04;;;;;;;16.10;6.43;;;18.90;99.90;;;;;;4938325;29;20397;-74
2022/08/04 05:04:09;;;;;;;18.20;6.90;;;18.90;99.90;;;;;;4938828;29;20047;-74
2022/08/04 05:07:00;;;;;;;14.38;6.40;;;19.00;99.90;;;;;;4939418;29;20055;-74
2022/08/04 05:09:47;;;;;;;14.45;5.97;;;19.10;99.90;;;;;;4954948;28;20059;-77
2022/08/04 05:12:37;;;;;;;12.93;6.15;;;19.10;99.90;;;;;;4954965;29;20051;-75
2022/08/04 05:15:08;;;;;;;17.42;5.93;;;19.20;99.90;;;;;;4955259;28;20118;-72
2022/08/04 05:17:47;;;;;;;16.73;6.40;;;19.40;99.90;;;;;;4955117;29;20093;-72
2022/08/04 05:20:38;;;;;;;18.30;6.63;;;19.50;99.90;;;;;;4955048;29;20051;-73
2022/08/04 05:23:18;;;;;;;18.42;7.28;;;19.60;99.90;;;;;;4960825;28;20309;-73
2022/08/04 05:25:58;;;;;;;15.43;6.30;;;19.70;99.90;;;;;;4953386;28;20492;-73
2022/08/04 05:28:39;;;;;;;17.65;6.30;;;19.70;99.90;;;;;;4954464;29;20051;-73
2022/08/04 05:31:17;;;;;;;16.73;7.20;;;19.80;99.90;;;;;;4953135;28;20058;-73
2022/08/04 05:34:12;;;;;;;15.55;7.07;;;19.80;99.90;;;;;;4954314;29;20178;-73
2022/08/04 05:37:06;;;;;;;18.15;7.68;;;19.90;99.90;;;;;;4937434;29;20519;-73
2022/08/04 05:39:37;;;;;;;20.17;7.75;;;19.90;99.90;;;;;;4947308;28;20144;-74
2022/08/04 05:42:04;;;;;;;19.52;8.20;;;19.90;99.90;;;;;;4953479;29;20054;-73
2022/08/04 05:44:33;;;;;;;19.08;7.95;;;20.00;99.90;;;;;;4953725;29;20054;-73
2022/08/04 05:47:00;;;;;;;20.40;8.15;;;20.10;99.90;;;;;;4938023;29;20043;-74
2022/08/04 05:49:38;;;;;;;18.77;8.18;;;20.10;99.90;;;;;;4953238;29;20051;-74
2022/08/04 05:52:06;;;;;;;17.08;7.65;;;20.10;99.90;;;;;;4953088;29;20059;-73
2022/08/04 05:54:34;;;;;;;20.85;7.95;;;20.20;99.90;;;;;;4922486;29;20070;-73
2022/08/04 05:57:03;;;;;;;15.75;8.10;;;20.10;99.90;;;;;;4921509;29;20051;-73
2022/08/04 05:59:32;;;;;;;18.48;7.85;;;20.20;99.90;;;;;;4937117;29;20057;-74
2022/08/04 06:02:01;;;;;;;19.60;7.80;;;20.20;99.90;;;;;;4953187;29;20051;-75
2022/08/04 06:04:50;;;;;;;18.90;7.20;;;20.30;99.90;;;;;;4939627;29;20055;-76
2022/08/04 06:07:18;;;;;;;18.70;8.02;;;20.30;99.90;;;;;;4937748;29;20134;-74
2022/08/04 06:09:50;;;;;;;20.30;7.78;;;20.40;99.90;;;;;;4952905;29;20077;-74
2022/08/04 06:12:48;;;;;;;15.63;7.60;;;20.50;99.90;;;;;;4955158;28;20058;-74
2022/08/04 06:15:18;;;;;;;18.23;8.23;;;20.60;99.90;;;;;;4937183;29;20555;-74
2022/08/04 06:18:00;;;;;;;17.58;7.70;;;20.70;99.90;;;;;;4924288;29;20086;-73
2022/08/04 06:20:31;;;;;;;23.60;7.63;;;20.80;99.90;;;;;;4922443;29;20130;-74
2022/08/04 06:23:04;;;;;;;18.05;7.95;;;20.90;99.90;;;;;;4922078;29;20125;-75
2022/08/04 06:25:53;;;;;;;15.77;7.55;;;21.00;99.90;;;;;;4923787;29;20070;-74
2022/08/04 06:28:28;;;;;;;18.30;7.90;;;21.20;99.90;;;;;;4955000;29;20050;-74
2022/08/04 06:31:02;;;;;;;19.10;7.38;;;21.30;99.90;;;;;;4953272;29;20055;-74
2022/08/04 06:33:43;;;;;;;17.73;7.40;;;21.30;99.90;;;;;;4907906;29;20079;-74
2022/08/04 06:36:11;;;;;;;19.65;7.97;;;21.50;99.90;;;;;;4938317;29;20039;-74
2022/08/04 06:38:41;;;;;;;17.25;7.45;;;21.60;99.90;;;;;;4953539;28;20083;-74
2022/08/04 06:41:17;;;;;;;19.08;7.38;;;21.70;99.90;;;;;;4938232;29;20134;-74
2022/08/04 06:43:43;;;;;;;16.08;7.35;;;21.80;99.90;;;;;;4940304;29;20039;-73
2022/08/04 06:46:09;;;;;;;17.52;7.38;;;21.90;99.90;;;;;;4941405;29;20051;-77
2022/08/04 06:48:37;;;;;;;16.85;7.35;;;22.00;99.90;;;;;;4924012;29;20106;-76
2022/08/04 06:51:04;;;;;;;19.40;7.15;;;22.10;99.90;;;;;;4924326;29;20063;-73
2022/08/04 06:53:30;;;;;;;18.05;5.78;;;22.20;99.90;;;;;;4956594;29;20047;-73
2022/08/04 06:56:00;;;;;;;18.60;7.83;;;22.30;99.90;;;;;;4957084;28;20447;-73
2022/08/04 06:58:31;;;;;;;17.98;6.68;;;22.40;99.90;;;;;;4955975;29;20055;-71
2022/08/04 07:01:01;;;;;;;16.40;6.50;;;22.50;99.90;;;;;;4941881;29;20090;-71
2022/08/04 07:03:35;;;;;;;15.45;6.22;;;22.60;99.90;;;;;;4927662;29;20384;-72
2022/08/04 07:06:11;;;;;;;13.05;5.68;;;22.70;99.90;;;;;;4943503;29;20051;-73
2022/08/04 07:08:38;;;;;;;18.77;6.45;;;22.80;99.90;;;;;;4957627;29;20094;-73
2022/08/04 07:11:04;;;;;;;13.23;5.85;;;22.90;99.90;;;;;;4957452;29;20511;-74
2022/08/04 07:13:37;;;;;;;13.00;5.75;;;23.00;99.90;;;;;;4957011;28;20058;-74
2022/08/04 07:16:14;;;;;;;18.33;5.90;;;23.10;99.90;;;;;;4941870;29;20388;-74
2022/08/04 07:18:48;;;;;;;16.42;7.00;;;23.30;99.90;;;;;;4957895;28;20134;-74
2022/08/04 07:21:22;;;;;;;16.43;6.40;;;23.40;99.90;;;;;;4940079;29;20063;-74
2022/08/04 07:23:49;;;;;;;16.25;7.20;;;23.40;99.90;;;;;;4954677;28;20059;-73
2022/08/04 07:26:18;;;;;;;18.23;6.85;;;23.50;99.90;;;;;;4941204;29;20415;-73
2022/08/04 07:28:44;;;;;;;21.60;7.65;;;23.60;99.90;;;;;;4941385;29;20091;-74
2022/08/04 07:31:15;;;;;;;18.30;7.28;;;23.70;99.90;;;;;;4940854;29;20043;-74
2022/08/04 07:33:42;;;;;;;18.42;7.40;;;23.70;99.90;;;;;;4941458;29;20074;-74
2022/08/04 07:36:11;;;;;;;15.70;6.47;;;23.80;99.90;;;;;;4941698;29;20058;-73
2022/08/04 07:38:39;;;;;;;20.15;6.32;;;23.90;99.90;;;;;;4926457;29;20066;-73
2022/08/04 07:41:11;;;;;;;15.40;6.03;;;23.90;99.90;;;;;;4942808;29;20055;-73
2022/08/04 07:43:38;;;;;;;14.35;5.18;;;24.10;99.90;;;;;;4956828;29;20137;-75
2022/08/04 07:46:04;;;;;;;12.75;5.05;;;24.20;99.90;;;;;;4940509;29;20130;-74
2022/08/04 07:48:30;;;;;;;17.20;4.60;;;24.40;99.90;;;;;;4940914;29;20086;-78
2022/08/04 07:50:57;;;;;;;12.25;4.47;;;24.60;99.90;;;;;;4924970;29;20082;-75
2022/08/04 07:53:24;;;;;;;16.98;4.25;;;24.70;99.90;;;;;;4956066;29;20138;-75
2022/08/04 07:55:51;;;;;;;15.30;4.25;;;24.90;99.90;;;;;;4957463;28;20047;-73
2022/08/04 07:58:17;;;;;;;15.35;4.68;;;25.00;99.90;;;;;;4940578;29;20126;-74
2022/08/04 08:00:45;;;;;;;13.83;4.40;;;25.20;99.90;;;;;;4957528;29;20090;-74
2022/08/04 08:03:12;;;;;;;15.30;4.15;;;25.20;99.90;;;;;;4941636;29;20298;-75
2022/08/04 08:05:38;;;;;;;19.48;3.97;;;25.30;99.90;;;;;;4925860;29;20078;-74
2022/08/04 08:08:04;;;;;;;15.52;3.67;;;25.40;99.90;;;;;;4927626;29;20051;-75
2022/08/04 08:10:32;;;;;;;12.87;4.07;;;25.40;99.90;;;;;;4944739;29;20151;-74
2022/08/04 08:12:58;;;;;;;10.82;3.70;;;25.50;99.90;;;;;;4928591;29;20043;-75
2022/08/04 08:15:25;;;;;;;18.42;3.83;;;25.60;99.90;;;;;;4959932;29;20058;-72
2022/08/04 08:17:53;;;;;;;8.90;3.17;;;25.80;99.90;;;;;;4964070;29;20412;-74
2022/08/04 08:20:19;;;;;;;14.60;4.10;;;25.90;99.90;;;;;;4932642;29;20062;-74
2022/08/04 08:22:54;;;;;;;14.68;4.18;;;25.90;99.90;;;;;;4950969;29;20092;-75
2022/08/04 08:25:20;;;;;;;12.32;4.28;;;26.10;99.90;;;;;;4949933;29;20134;-75
2022/08/04 08:27:48;;;;;;;9.77;3.43;;;26.30;99.90;;;;;;4933525;29;20051;-74
2022/08/04 08:30:14;;;;;;;15.20;3.53;;;26.40;99.90;;;;;;4949247;29;20298;-76
2022/08/04 08:32:40;;;;;;;12.87;4.10;;;26.70;99.90;;;;;;4965141;28;20043;-76
2022/08/04 08:35:06;;;;;;;12.80;3.95;;;26.70;99.90;;;;;;4965806;29;20058;-75
2022/08/04 08:37:44;;;;;;;14.93;3.92;;;26.70;99.90;;;;;;4950882;29;20051;-72
2022/08/04 08:40:29;;;;;;;13.10;4.53;;;26.70;99.90;;;;;;4968237;29;20047;-77
2022/08/04 08:43:07;;;;;;;12.32;4.40;;;26.80;99.90;;;;;;4966078;29;20083;-74
2022/08/04 08:45:48;;;;;;;10.93;3.90;;;26.90;99.90;;;;;;4967529;29;20396;-70
2022/08/04 08:48:43;;;;;;;10.50;3.95;;;26.90;99.90;;;;;;4968587;28;20043;-75
2022/08/04 08:51:32;;;;;;;20.88;4.30;;;27.00;99.90;;;;;;4967597;29;20051;-76
2022/08/04 08:54:06;;;;;;;15.38;4.18;;;27.10;99.90;;;;;;4969929;28;20047;-77
2022/08/04 08:56:54;;;;;;;13.70;3.45;;;27.30;99.90;;;;;;4967733;29;20047;-75
2022/08/04 08:59:51;;;;;;;16.88;4.22;;;27.30;99.90;;;;;;4951105;29;20051;-76
2022/08/04 09:02:36;;;;;;;12.07;3.47;;;27.30;99.90;;;;;;4951227;29;20055;-76
2022/08/04 09:05:38;;;;;;;14.32;3.85;;;27.30;99.90;;;;;;4969620;29;20488;-74
2022/08/04 09:08:23;;;;;;;12.27;3.50;;;27.30;99.90;;;;;;4951997;29;20059;-74
2022/08/04 09:10:58;;;;;;;13.57;3.65;;;27.30;99.90;;;;;;4971084;29;20047;-74
2022/08/04 09:13:42;;;;;;;13.93;3.35;;;27.20;99.90;;;;;;4949772;29;20047;-74
2022/08/04 09:16:23;;;;;;;14.73;3.97;;;27.30;99.90;;;;;;4966463;29;20051;-74
2022/08/04 09:19:27;;;;;;;14.38;4.30;;;27.40;99.90;;;;;;4970517;29;20368;-76
2022/08/04 09:22:23;;;;;;;14.15;3.70;;;27.50;99.90;;;;;;4954657;29;20117;-75
2022/08/04 09:25:11;;;;;;;15.57;3.97;;;27.70;99.90;;;;;;4971094;29;20053;-77
2022/08/04 09:27:50;;;;;;;17.67;4.07;;;27.90;99.90;;;;;;4968981;29;20080;-74
2022/08/04 09:30:32;;;;;;;16.77;4.45;;;27.90;99.90;;;;;;4944353;29;20396;-75
2022/08/04 09:33:11;;;;;;;18.60;4.40;;;28.00;99.90;;;;;;4956915;29;20066;-75
2022/08/04 09:35:52;;;;;;;13.35;4.00;;;28.00;99.90;;;;;;4956887;29;20047;-75
2022/08/04 09:39:13;;;;;;;18.95;4.00;;;28.20;99.90;;;;;;4939863;29;20047;-73
2022/08/04 09:42:10;;;;;;;14.48;4.50;;;28.40;99.90;;;;;;4900671;29;20420;-75
2022/08/04 09:44:45;;;;;;;11.88;4.22;;;28.50;99.90;;;;;;4917486;29;20052;-76
2022/08/04 09:47:10;;;;;;;10.75;4.22;;;28.70;99.90;;;;;;4950899;29;20533;-73
2022/08/04 09:49:51;;;;;;;14.75;4.68;;;28.90;99.90;;;;;;4944007;29;20047;-75
2022/08/04 09:52:39;;;;;;;15.52;3.80;;;28.80;99.90;;;;;;4965979;29;20078;-74
2022/08/04 09:55:37;;;;;;;14.80;3.90;;;28.80;99.90;;;;;;4964373;29;20098;-76
2022/08/04 09:58:05;;;;;;;9.80;4.50;;;28.80;99.90;;;;;;4963434;29;20051;-74
2022/08/04 10:00:42;;;;;;;8.85;4.15;;;28.70;99.90;;;;;;4961517;29;20087;-73
2022/08/04 10:03:11;;;;;;;10.93;4.10;;;28.60;99.90;;;;;;4965602;29;20061;-75
2022/08/04 10:06:06;;;;;;;13.85;4.00;;;28.50;99.90;;;;;;4964755;29;20047;-75
2022/08/04 10:08:55;;;;;;;14.85;4.50;;;28.40;99.90;;;;;;4965981;28;20043;-74
2022/08/04 10:11:30;;;;;;;11.65;4.43;;;28.40;99.90;;;;;;4948003;29;20059;-74
2022/08/04 10:14:16;;;;;;;12.70;4.10;;;28.20;99.90;;;;;;4965360;29;20047;-74
2022/08/04 10:17:03;;;;;;;14.70;4.30;;;28.10;99.90;;;;;;4964425;28;20074;-74
2022/08/04 10:19:37;;;;;;;11.35;3.50;;;28.20;99.90;;;;;;4964885;28;20063;-73
2022/08/04 10:22:16;;;;;;;14.65;3.35;;;28.20;99.90;;;;;;4964529;29;20382;-77
2022/08/04 10:25:00;;;;;;;14.57;2.95;;;28.10;99.90;;;;;;4964594;29;20126;-77
2022/08/04 10:27:33;;;;;;;8.07;2.53;;;28.20;99.90;;;;;;4963657;29;20047;-75
2022/08/04 10:30:13;;;;;;;12.85;2.40;;;28.00;99.90;;;;;;4962732;29;20063;-75
2022/08/04 10:33:01;;;;;;;13.38;2.20;;;27.90;99.90;;;;;;4949156;29;20043;-74
2022/08/04 10:35:33;;;;;;;7.22;1.98;;;28.00;99.90;;;;;;4961807;29;20452;-75
2022/08/04 10:38:36;;;;;;;9.52;2.00;;;28.00;99.90;;;;;;4944029;29;20122;-73
2022/08/04 10:41:36;;;;;;;9.23;1.85;;;27.90;99.90;;;;;;4960519;29;20111;-76
2022/08/04 10:44:32;;;;;;;6.82;1.77;;;27.90;99.90;;;;;;4960868;29;20110;-76
2022/08/04 10:47:03;;;;;;;8.32;1.52;;;28.00;99.90;;;;;;4944580;29;20062;-72
2022/08/04 10:49:36;;;;;;;5.80;1.25;;;27.90;99.90;;;;;;4962394;29;20054;-75
2022/08/04 10:52:19;;;;;;;6.55;1.30;;;28.00;99.60;;;;;;4962817;28;20071;-76
2022/08/04 10:55:23;;;;;;;5.43;1.27;;;27.80;99.10;;;;;;4962320;29;20055;-76
2022/08/04 10:57:58;;;;;;;7.45;1.13;;;28.00;99.50;;;;;;4962666;29;20047;-75
2022/08/04 11:00:28;;;;;;;9.18;1.40;;;28.10;99.40;;;;;;4960441;29;20055;-75
2022/08/04 11:03:01;;;;;;;10.40;1.50;;;28.20;99.10;;;;;;4961409;28;20062;-76
2022/08/04 11:05:34;;;;;;;8.30;1.33;;;28.20;99.30;;;;;;4960773;29;20047;-75
2022/08/04 11:08:10;;;;;;;8.18;1.27;;;28.00;99.00;;;;;;4960029;29;20054;-75
2022/08/04 11:10:49;;;;;;;8.30;1.38;;;28.00;99.40;;;;;;4943765;29;20059;-76
2022/08/04 11:13:16;;;;;;;8.35;1.60;;;28.20;99.30;;;;;;4965126;29;20055;-75
2022/08/04 11:15:55;;;;;;;7.60;1.20;;;28.20;99.10;;;;;;4966885;29;20058;-77
2022/08/04 11:18:52;;;;;;;10.50;1.85;;;28.30;99.20;;;;;;4968891;29;20044;-78
2022/08/04 11:21:30;;;;;;;8.10;1.65;;;28.50;98.70;;;;;;4963397;29;20055;-76
2022/08/04 11:24:18;;;;;;;8.00;1.35;;;28.50;98.80;;;;;;4960810;29;20055;-74
2022/08/04 11:26:50;;;;;;;9.02;1.23;;;28.70;98.70;;;;;;4955523;29;20062;-76
2022/08/04 11:29:39;;;;;;;7.68;1.63;;;28.80;98.90;;;;;;4957675;28;20051;-74
2022/08/04 11:32:11;;;;;;;9.38;1.60;;;28.50;99.20;;;;;;4942451;29;20122;-76
2022/08/04 11:34:42;;;;;;;14.80;1.27;;;28.50;99.20;;;;;;4961357;28;20054;-74
2022/08/04 11:37:12;;;;;;;11.20;1.33;;;28.60;99.50;;;;;;4943590;29;20147;-77
2022/08/04 11:39:47;;;;;;;13.13;1.38;;;28.60;99.10;;;;;;4965845;29;20400;-74
2022/08/04 11:42:37;;;;;;;8.85;1.30;;;28.40;99.10;;;;;;4966141;29;20143;-75
2022/08/04 11:45:16;;;;;;;7.47;1.17;;;28.20;98.80;;;;;;4967046;28;20051;-71
2022/08/04 11:48:05;;;;;;;5.10;0.93;;;28.10;98.20;;;;;;4964960;29;20511;-76
2022/08/04 11:50:48;;;;;;;5.25;1.23;;;27.90;98.40;;;;;;4933706;29;20126;-75
2022/08/04 11:53:19;;;;;;;7.10;1.00;;;27.60;98.30;;;;;;4966681;28;20059;-74
2022/08/04 11:55:51;;;;;;;6.78;1.52;;;27.70;98.60;;;;;;4965084;29;20047;-74
2022/08/04 11:58:23;;;;;;;4.47;0.93;;;27.50;98.70;;;;;;4965316;29;20070;-75
2022/08/04 12:01:24;;;;;;;7.10;1.08;;;27.30;99.00;;;;;;4948394;29;20043;-78
2022/08/04 12:04:36;;;;;;;5.80;0.90;;;27.20;99.50;;;;;;4947880;29;20047;-77
2022/08/04 12:07:06;;;;;;;4.22;0.85;;;27.20;99.70;;;;;;4965250;28;20468;-75
2022/08/04 12:10:04;;;;;;;3.70;0.77;;;27.20;99.70;;;;;;4965190;29;20042;-75
2022/08/04 12:12:48;;;;;;;4.68;0.93;;;27.00;98.80;;;;;;4964202;28;20149;-76
2022/08/04 12:15:38;;;;;;;3.50;0.90;;;26.80;98.70;;;;;;4964586;29;20094;-75
2022/08/04 12:18:38;;;;;;;3.58;0.70;;;26.70;98.50;;;;;;4963487;29;20059;-75
2022/08/04 12:21:17;;;;;;;6.03;0.80;;;26.50;98.40;;;;;;4951411;29;20063;-75
2022/08/04 12:23:45;;;;;;;3.65;0.80;;;26.30;98.50;;;;;;4958203;28;20451;-74
2022/08/04 12:26:21;;;;;;;5.18;0.90;;;26.20;98.30;;;;;;4955703;29;20051;-74
2022/08/04 12:28:50;;;;;;;5.10;0.73;;;26.00;98.40;;;;;;4957546;29;20121;-75
2022/08/04 12:31:20;;;;;;;6.70;1.23;;;25.80;98.90;;;;;;4939765;29;20054;-74
2022/08/04 12:33:58;;;;;;;9.80;1.35;;;25.70;99.70;;;;;;4955517;29;20055;-74
2022/08/04 12:36:48;;;;;;;5.88;1.00;;;25.60;99.80;;;;;;4939293;29;20055;-74
2022/08/04 12:39:21;;;;;;;11.32;1.02;;;25.50;99.90;;;;;;4955841;29;20055;-74
2022/08/04 12:42:11;;;;;;;3.17;1.10;;;25.30;99.90;;;;;;4924019;29;20051;-73
2022/08/04 12:44:41;;;;;;;8.52;0.90;;;25.30;99.90;;;;;;4956390;28;20396;-72
2022/08/04 12:47:11;;;;;;;8.52;1.10;;;25.20;99.90;;;;;;4955269;29;20063;-72
2022/08/04 12:49:42;;;;;;;5.57;1.10;;;25.30;99.90;;;;;;4955714;29;20051;-72
2022/08/04 12:52:10;;;;;;;6.03;0.90;;;25.20;99.90;;;;;;4955143;29;20063;-72
2022/08/04 12:54:38;;;;;;;5.40;1.30;;;25.30;99.90;;;;;;4955181;29;20099;-73
2022/08/04 12:57:06;;;;;;;3.90;0.77;;;25.30;99.90;;;;;;4956463;29;20047;-80
2022/08/04 12:59:43;;;;;;;3.75;0.63;;;25.40;99.90;;;;;;4965696;29;20047;-73
2022/08/04 13:02:24;;;;;;;2.88;0.77;;;25.50;99.90;;;;;;4979104;28;20031;-75
2022/08/04 13:04:50;;;;;;;2.30;0.70;;;25.80;99.90;;;;;;4949488;29;20386;-74
2022/08/04 13:07:20;;;;;;;3.95;0.80;;;26.10;99.90;;;;;;4947863;29;20097;-73
2022/08/04 13:09:46;;;;;;;2.75;0.80;;;26.30;99.90;;;;;;4962950;29;20066;-74
2022/08/04 13:12:16;;;;;;;4.65;0.80;;;26.70;99.90;;;;;;4964337;29;20380;-73
2022/08/04 13:14:43;;;;;;;2.75;0.70;;;26.90;99.90;;;;;;4963730;29;20047;-75
2022/08/04 13:17:10;;;;;;;4.25;1.65;;;26.70;99.90;;;;;;4946886;29;20055;-72
2022/08/04 13:19:37;;;;;;;3.92;0.70;;;26.70;99.50;;;;;;4947532;29;20051;-72
2022/08/04 13:22:04;;;;;;;4.10;0.70;;;26.80;99.70;;;;;;4963488;29;20051;-74
2022/08/04 13:24:32;;;;;;;3.15;0.80;;;26.90;98.70;;;;;;4946940;29;20063;-72
2022/08/04 13:27:11;;;;;;;4.03;0.95;;;26.70;97.40;;;;;;4964478;28;20074;-73
2022/08/04 13:29:44;;;;;;;2.97;0.70;;;27.00;98.10;;;;;;4948267;29;20051;-72
2022/08/04 13:32:15;;;;;;;3.60;0.77;;;26.90;98.40;;;;;;4947357;29;20051;-72
2022/08/04 13:34:42;;;;;;;3.63;0.85;;;26.90;97.50;;;;;;4952017;29;20122;-75
2022/08/04 13:37:09;;;;;;;2.92;1.15;;;26.70;97.70;;;;;;4964533;29;20090;-79
2022/08/04 13:39:38;;;;;;;2.58;0.73;;;26.80;97.70;;;;;;4967183;29;20078;-73
2022/08/04 13:42:12;;;;;;;2.67;0.65;;;26.90;96.80;;;;;;4936552;29;20050;-76